sensor_id;sensor_type;location;lat;lon;timestamp;P1;durP1;ratioP1;P2;durP2;ratioP2
31680;SDS011;18281;51.364;9.566;2022-11-12T00:00:25;9.20;;;5.47;;
31680;SDS011;18281;51.364;9.566;2022-11-12T00:02:50;9.07;;;5.32;;
31680;SDS011;18281;51.364;9.566;2022-11-12T00:05:16;8.75;;;5.82;;
31680;SDS011;18281;51.364;9.566;2022-11-12T00:07:41;10.57;;;5.38;;
31680;SDS011;18281;51.364;9.566;2022-11-12T00:10:07;8.13;;;5.35;;
31680;SDS011;18281;51.364;9.566;2022-11-12T00:12:32;8.05;;;5.32;;
31680;SDS011;18281;51.364;9.566;2022-11-12T00:14:58;10.15;;;5.88;;
31680;SDS011;18281;51.364;9.566;2022-11-12T00:17:23;8.52;;;5.78;;
31680;SDS011;18281;51.364;9.566;2022-11-12T00:19:49;8.90;;;5.43;;
31680;SDS011;18281;51.364;9.566;2022-11-12T00:22:15;10.00;;;5.50;;
31680;SDS011;18281;51.364;9.566;2022-11-12T00:24:41;9.35;;;5.97;;
31680;SDS011;18281;51.364;9.566;2022-11-12T00:27:06;11.55;;;5.45;;
31680;SDS011;18281;51.364;9.566;2022-11-12T00:29:32;8.85;;;5.63;;
31680;SDS011;18281;51.364;9.566;2022-11-12T00:31:57;9.35;;;6.25;;
31680;SDS011;18281;51.364;9.566;2022-11-12T00:34:22;8.45;;;5.80;;
31680;SDS011;18281;51.364;9.566;2022-11-12T00:36:48;11.50;;;5.88;;
31680;SDS011;18281;51.364;9.566;2022-11-12T00:39:14;8.98;;;6.00;;
31680;SDS011;18281;51.364;9.566;2022-11-12T00:41:39;8.43;;;5.78;;
31680;SDS011;18281;51.364;9.566;2022-11-12T00:44:04;9.23;;;5.97;;
31680;SDS011;18281;51.364;9.566;2022-11-12T00:46:30;10.48;;;5.88;;
31680;SDS011;18281;51.364;9.566;2022-11-12T00:48:55;9.20;;;6.20;;
31680;SDS011;18281;51.364;9.566;2022-11-12T00:51:21;8.10;;;5.72;;
31680;SDS011;18281;51.364;9.566;2022-11-12T00:53:47;11.88;;;5.88;;
31680;SDS011;18281;51.364;9.566;2022-11-12T00:56:13;11.15;;;5.82;;
31680;SDS011;18281;51.364;9.566;2022-11-12T00:58:39;9.57;;;6.30;;
31680;SDS011;18281;51.364;9.566;2022-11-12T01:01:08;12.05;;;6.72;;
31680;SDS011;18281;51.364;9.566;2022-11-12T01:03:36;10.75;;;6.10;;
31680;SDS011;18281;51.364;9.566;2022-11-12T01:06:04;9.70;;;5.63;;
31680;SDS011;18281;51.364;9.566;2022-11-12T01:11:03;11.95;;;5.93;;
31680;SDS011;18281;51.364;9.566;2022-11-12T01:13:40;11.18;;;6.32;;
31680;SDS011;18281;51.364;9.566;2022-11-12T01:16:07;9.85;;;6.38;;
31680;SDS011;18281;51.364;9.566;2022-11-12T01:18:37;15.38;;;8.20;;
31680;SDS011;18281;51.364;9.566;2022-11-12T01:21:03;15.40;;;7.18;;
31680;SDS011;18281;51.364;9.566;2022-11-12T01:23:31;16.40;;;7.97;;
31680;SDS011;18281;51.364;9.566;2022-11-12T01:26:02;17.88;;;10.07;;
31680;SDS011;18281;51.364;9.566;2022-11-12T01:28:29;20.52;;;9.95;;
31680;SDS011;18281;51.364;9.566;2022-11-12T01:30:54;19.88;;;9.80;;
31680;SDS011;18281;51.364;9.566;2022-11-12T01:33:19;16.83;;;10.15;;
31680;SDS011;18281;51.364;9.566;2022-11-12T01:35:48;20.77;;;9.23;;
31680;SDS011;18281;51.364;9.566;2022-11-12T01:38:13;17.30;;;8.75;;
31680;SDS011;18281;51.364;9.566;2022-11-12T01:40:40;14.65;;;8.45;;
31680;SDS011;18281;51.364;9.566;2022-11-12T01:43:11;12.88;;;7.88;;
31680;SDS011;18281;51.364;9.566;2022-11-12T01:45:39;14.82;;;8.23;;
31680;SDS011;18281;51.364;9.566;2022-11-12T01:48:12;13.18;;;7.50;;
31680;SDS011;18281;51.364;9.566;2022-11-12T01:50:52;11.27;;;6.57;;
31680;SDS011;18281;51.364;9.566;2022-11-12T01:53:18;10.77;;;7.00;;
31680;SDS011;18281;51.364;9.566;2022-11-12T01:55:46;11.07;;;6.75;;
31680;SDS011;18281;51.364;9.566;2022-11-12T01:58:13;17.40;;;7.80;;
31680;SDS011;18281;51.364;9.566;2022-11-12T02:00:42;8.02;;;6.18;;
31680;SDS011;18281;51.364;9.566;2022-11-12T02:03:09;9.38;;;5.82;;
31680;SDS011;18281;51.364;9.566;2022-11-12T02:05:39;9.23;;;5.93;;
31680;SDS011;18281;51.364;9.566;2022-11-12T02:08:10;9.80;;;6.22;;
31680;SDS011;18281;51.364;9.566;2022-11-12T02:10:40;12.68;;;6.35;;
31680;SDS011;18281;51.364;9.566;2022-11-12T02:13:05;8.93;;;5.85;;
31680;SDS011;18281;51.364;9.566;2022-11-12T02:15:51;10.10;;;5.60;;
31680;SDS011;18281;51.364;9.566;2022-11-12T02:18:17;9.68;;;5.78;;
31680;SDS011;18281;51.364;9.566;2022-11-12T02:20:42;10.90;;;6.28;;
31680;SDS011;18281;51.364;9.566;2022-11-12T02:23:08;10.82;;;6.10;;
31680;SDS011;18281;51.364;9.566;2022-11-12T02:25:33;12.52;;;6.85;;
31680;SDS011;18281;51.364;9.566;2022-11-12T02:27:59;8.00;;;5.57;;
31680;SDS011;18281;51.364;9.566;2022-11-12T02:30:37;7.75;;;5.97;;
31680;SDS011;18281;51.364;9.566;2022-11-12T02:33:04;7.28;;;5.53;;
31680;SDS011;18281;51.364;9.566;2022-11-12T02:35:30;9.48;;;5.47;;
31680;SDS011;18281;51.364;9.566;2022-11-12T02:37:56;8.27;;;5.40;;
31680;SDS011;18281;51.364;9.566;2022-11-12T02:40:21;8.25;;;5.45;;
31680;SDS011;18281;51.364;9.566;2022-11-12T02:42:47;8.80;;;5.63;;
31680;SDS011;18281;51.364;9.566;2022-11-12T02:45:12;8.00;;;4.78;;
31680;SDS011;18281;51.364;9.566;2022-11-12T02:47:39;8.38;;;5.47;;
31680;SDS011;18281;51.364;9.566;2022-11-12T02:50:04;8.85;;;5.97;;
31680;SDS011;18281;51.364;9.566;2022-11-12T02:52:30;5.72;;;4.75;;
31680;SDS011;18281;51.364;9.566;2022-11-12T02:54:56;12.35;;;5.43;;
31680;SDS011;18281;51.364;9.566;2022-11-12T02:57:22;8.20;;;4.88;;
31680;SDS011;18281;51.364;9.566;2022-11-12T02:59:47;8.07;;;5.22;;
31680;SDS011;18281;51.364;9.566;2022-11-12T03:02:13;6.03;;;4.72;;
31680;SDS011;18281;51.364;9.566;2022-11-12T03:04:38;10.75;;;5.45;;
31680;SDS011;18281;51.364;9.566;2022-11-12T03:07:03;7.22;;;5.63;;
31680;SDS011;18281;51.364;9.566;2022-11-12T03:09:28;7.82;;;5.13;;
31680;SDS011;18281;51.364;9.566;2022-11-12T03:11:54;7.75;;;5.30;;
31680;SDS011;18281;51.364;9.566;2022-11-12T03:14:20;9.65;;;5.40;;
31680;SDS011;18281;51.364;9.566;2022-11-12T03:16:45;5.75;;;4.85;;
31680;SDS011;18281;51.364;9.566;2022-11-12T03:19:11;8.20;;;5.18;;
31680;SDS011;18281;51.364;9.566;2022-11-12T03:21:36;8.88;;;5.63;;
31680;SDS011;18281;51.364;9.566;2022-11-12T03:24:01;7.78;;;4.97;;
31680;SDS011;18281;51.364;9.566;2022-11-12T03:26:27;6.68;;;5.15;;
31680;SDS011;18281;51.364;9.566;2022-11-12T03:28:52;11.02;;;5.80;;
31680;SDS011;18281;51.364;9.566;2022-11-12T03:31:18;6.63;;;4.88;;
31680;SDS011;18281;51.364;9.566;2022-11-12T03:33:44;8.30;;;5.60;;
31680;SDS011;18281;51.364;9.566;2022-11-12T03:36:09;8.82;;;6.25;;
31680;SDS011;18281;51.364;9.566;2022-11-12T03:38:35;8.82;;;6.25;;
31680;SDS011;18281;51.364;9.566;2022-11-12T03:41:00;8.10;;;5.97;;
31680;SDS011;18281;51.364;9.566;2022-11-12T03:43:25;10.82;;;6.20;;
31680;SDS011;18281;51.364;9.566;2022-11-12T03:45:51;9.70;;;5.55;;
31680;SDS011;18281;51.364;9.566;2022-11-12T03:48:16;10.57;;;5.85;;
31680;SDS011;18281;51.364;9.566;2022-11-12T03:50:41;11.70;;;5.93;;
31680;SDS011;18281;51.364;9.566;2022-11-12T03:53:07;8.30;;;5.75;;
31680;SDS011;18281;51.364;9.566;2022-11-12T03:55:32;10.25;;;5.85;;
31680;SDS011;18281;51.364;9.566;2022-11-12T03:57:58;11.13;;;5.93;;
31680;SDS011;18281;51.364;9.566;2022-11-12T04:00:24;9.35;;;6.05;;
31680;SDS011;18281;51.364;9.566;2022-11-12T04:02:50;9.73;;;6.10;;
31680;SDS011;18281;51.364;9.566;2022-11-12T04:05:16;10.80;;;5.93;;
31680;SDS011;18281;51.364;9.566;2022-11-12T04:10:46;12.80;;;6.72;;
31680;SDS011;18281;51.364;9.566;2022-11-12T04:13:12;15.18;;;7.32;;
31680;SDS011;18281;51.364;9.566;2022-11-12T04:16:03;10.27;;;6.55;;
31680;SDS011;18281;51.364;9.566;2022-11-12T04:18:51;14.05;;;7.40;;
31680;SDS011;18281;51.364;9.566;2022-11-12T04:27:09;18.95;;;8.50;;
31680;SDS011;18281;51.364;9.566;2022-11-12T04:29:37;12.00;;;7.55;;
31680;SDS011;18281;51.364;9.566;2022-11-12T04:32:22;14.05;;;7.47;;
31680;SDS011;18281;51.364;9.566;2022-11-12T04:34:47;9.98;;;7.22;;
31680;SDS011;18281;51.364;9.566;2022-11-12T04:37:13;11.80;;;7.63;;
31680;SDS011;18281;51.364;9.566;2022-11-12T04:39:38;8.80;;;6.70;;
31680;SDS011;18281;51.364;9.566;2022-11-12T04:42:03;9.35;;;6.90;;
31680;SDS011;18281;51.364;9.566;2022-11-12T04:44:52;20.65;;;6.55;;
31680;SDS011;18281;51.364;9.566;2022-11-12T04:47:37;8.65;;;5.85;;
31680;SDS011;18281;51.364;9.566;2022-11-12T04:50:06;9.05;;;6.20;;
31680;SDS011;18281;51.364;9.566;2022-11-12T04:52:37;9.98;;;5.93;;
31680;SDS011;18281;51.364;9.566;2022-11-12T04:55:02;6.85;;;5.65;;
31680;SDS011;18281;51.364;9.566;2022-11-12T04:57:28;8.13;;;5.97;;
31680;SDS011;18281;51.364;9.566;2022-11-12T04:59:53;7.07;;;5.75;;
31680;SDS011;18281;51.364;9.566;2022-11-12T05:02:19;8.57;;;5.82;;
31680;SDS011;18281;51.364;9.566;2022-11-12T05:04:45;8.30;;;5.88;;
31680;SDS011;18281;51.364;9.566;2022-11-12T05:07:11;15.02;;;6.28;;
31680;SDS011;18281;51.364;9.566;2022-11-12T05:09:36;6.95;;;5.20;;
31680;SDS011;18281;51.364;9.566;2022-11-12T05:12:02;6.65;;;5.25;;
31680;SDS011;18281;51.364;9.566;2022-11-12T05:14:28;8.18;;;5.22;;
31680;SDS011;18281;51.364;9.566;2022-11-12T05:16:53;9.65;;;5.13;;
31680;SDS011;18281;51.364;9.566;2022-11-12T05:19:18;8.90;;;5.18;;
31680;SDS011;18281;51.364;9.566;2022-11-12T05:21:44;5.82;;;4.82;;
31680;SDS011;18281;51.364;9.566;2022-11-12T05:24:28;9.07;;;5.05;;
31680;SDS011;18281;51.364;9.566;2022-11-12T05:26:54;7.20;;;5.35;;
31680;SDS011;18281;51.364;9.566;2022-11-12T05:29:19;5.70;;;4.18;;
31680;SDS011;18281;51.364;9.566;2022-11-12T05:31:45;6.53;;;4.93;;
31680;SDS011;18281;51.364;9.566;2022-11-12T05:34:10;7.80;;;5.07;;
31680;SDS011;18281;51.364;9.566;2022-11-12T05:36:36;8.40;;;5.38;;
31680;SDS011;18281;51.364;9.566;2022-11-12T05:39:02;6.60;;;4.55;;
31680;SDS011;18281;51.364;9.566;2022-11-12T05:41:28;6.70;;;4.80;;
31680;SDS011;18281;51.364;9.566;2022-11-12T05:43:54;5.22;;;4.25;;
31680;SDS011;18281;51.364;9.566;2022-11-12T05:46:19;7.15;;;4.53;;
31680;SDS011;18281;51.364;9.566;2022-11-12T05:48:44;6.18;;;4.65;;
31680;SDS011;18281;51.364;9.566;2022-11-12T05:51:10;5.93;;;4.60;;
31680;SDS011;18281;51.364;9.566;2022-11-12T05:53:37;5.82;;;3.72;;
31680;SDS011;18281;51.364;9.566;2022-11-12T05:56:03;5.72;;;4.30;;
31680;SDS011;18281;51.364;9.566;2022-11-12T05:58:30;5.15;;;4.20;;
31680;SDS011;18281;51.364;9.566;2022-11-12T06:00:56;5.95;;;3.78;;
31680;SDS011;18281;51.364;9.566;2022-11-12T06:03:22;5.03;;;4.22;;
31680;SDS011;18281;51.364;9.566;2022-11-12T06:05:48;4.40;;;3.65;;
31680;SDS011;18281;51.364;9.566;2022-11-12T06:08:13;4.70;;;3.67;;
31680;SDS011;18281;51.364;9.566;2022-11-12T06:10:39;6.55;;;4.15;;
31680;SDS011;18281;51.364;9.566;2022-11-12T06:13:04;6.43;;;3.72;;
31680;SDS011;18281;51.364;9.566;2022-11-12T06:15:30;6.95;;;3.88;;
31680;SDS011;18281;51.364;9.566;2022-11-12T06:17:56;6.30;;;4.00;;
31680;SDS011;18281;51.364;9.566;2022-11-12T06:20:21;4.72;;;3.90;;
31680;SDS011;18281;51.364;9.566;2022-11-12T06:22:48;6.18;;;3.60;;
31680;SDS011;18281;51.364;9.566;2022-11-12T06:25:14;4.72;;;4.22;;
31680;SDS011;18281;51.364;9.566;2022-11-12T06:27:40;4.82;;;3.40;;
31680;SDS011;18281;51.364;9.566;2022-11-12T06:30:05;4.57;;;3.63;;
31680;SDS011;18281;51.364;9.566;2022-11-12T06:32:32;8.07;;;3.92;;
31680;SDS011;18281;51.364;9.566;2022-11-12T06:34:57;3.05;;;2.75;;
31680;SDS011;18281;51.364;9.566;2022-11-12T06:37:22;3.90;;;3.50;;
31680;SDS011;18281;51.364;9.566;2022-11-12T06:39:48;3.42;;;3.13;;
31680;SDS011;18281;51.364;9.566;2022-11-12T06:42:13;5.35;;;3.10;;
31680;SDS011;18281;51.364;9.566;2022-11-12T06:44:39;3.25;;;2.85;;
31680;SDS011;18281;51.364;9.566;2022-11-12T06:47:04;7.18;;;3.85;;
31680;SDS011;18281;51.364;9.566;2022-11-12T06:49:30;4.03;;;3.05;;
31680;SDS011;18281;51.364;9.566;2022-11-12T06:51:55;5.68;;;3.60;;
31680;SDS011;18281;51.364;9.566;2022-11-12T06:54:20;3.40;;;3.10;;
31680;SDS011;18281;51.364;9.566;2022-11-12T06:56:46;3.20;;;2.90;;
31680;SDS011;18281;51.364;9.566;2022-11-12T06:59:11;3.70;;;3.40;;
31680;SDS011;18281;51.364;9.566;2022-11-12T07:01:36;3.70;;;3.35;;
31680;SDS011;18281;51.364;9.566;2022-11-12T07:04:02;4.35;;;3.53;;
31680;SDS011;18281;51.364;9.566;2022-11-12T07:06:27;3.90;;;3.50;;
31680;SDS011;18281;51.364;9.566;2022-11-12T07:08:53;6.57;;;3.38;;
31680;SDS011;18281;51.364;9.566;2022-11-12T07:11:19;6.40;;;3.05;;
31680;SDS011;18281;51.364;9.566;2022-11-12T07:13:45;4.35;;;3.35;;
31680;SDS011;18281;51.364;9.566;2022-11-12T07:16:11;4.20;;;3.72;;
31680;SDS011;18281;51.364;9.566;2022-11-12T07:18:44;4.05;;;3.50;;
31680;SDS011;18281;51.364;9.566;2022-11-12T07:21:11;4.00;;;3.60;;
31680;SDS011;18281;51.364;9.566;2022-11-12T07:23:38;5.43;;;4.00;;
31680;SDS011;18281;51.364;9.566;2022-11-12T07:26:11;4.70;;;4.03;;
31680;SDS011;18281;51.364;9.566;2022-11-12T07:28:45;4.10;;;3.70;;
31680;SDS011;18281;51.364;9.566;2022-11-12T07:31:11;5.60;;;4.47;;
31680;SDS011;18281;51.364;9.566;2022-11-12T07:33:38;6.38;;;5.00;;
31680;SDS011;18281;51.364;9.566;2022-11-12T07:36:04;8.82;;;5.72;;
31680;SDS011;18281;51.364;9.566;2022-11-12T07:38:32;7.32;;;5.25;;
31680;SDS011;18281;51.364;9.566;2022-11-12T07:41:02;7.85;;;4.75;;
31680;SDS011;18281;51.364;9.566;2022-11-12T07:43:33;8.65;;;5.32;;
31680;SDS011;18281;51.364;9.566;2022-11-12T07:46:01;6.55;;;5.00;;
31680;SDS011;18281;51.364;9.566;2022-11-12T07:48:29;7.47;;;4.88;;
31680;SDS011;18281;51.364;9.566;2022-11-12T07:51:11;6.53;;;4.97;;
31680;SDS011;18281;51.364;9.566;2022-11-12T07:53:39;6.18;;;4.32;;
31680;SDS011;18281;51.364;9.566;2022-11-12T07:56:05;4.53;;;4.13;;
31680;SDS011;18281;51.364;9.566;2022-11-12T07:58:31;6.47;;;3.97;;
31680;SDS011;18281;51.364;9.566;2022-11-12T08:01:07;8.18;;;5.90;;
31680;SDS011;18281;51.364;9.566;2022-11-12T08:03:32;7.68;;;4.97;;
31680;SDS011;18281;51.364;9.566;2022-11-12T08:06:01;10.00;;;6.13;;
31680;SDS011;18281;51.364;9.566;2022-11-12T08:08:27;8.80;;;6.35;;
31680;SDS011;18281;51.364;9.566;2022-11-12T08:10:53;13.20;;;7.10;;
31680;SDS011;18281;51.364;9.566;2022-11-12T08:13:22;10.13;;;7.05;;
31680;SDS011;18281;51.364;9.566;2022-11-12T08:15:48;12.93;;;7.95;;
31680;SDS011;18281;51.364;9.566;2022-11-12T08:18:13;13.48;;;7.88;;
31680;SDS011;18281;51.364;9.566;2022-11-12T08:20:39;10.65;;;7.72;;
31680;SDS011;18281;51.364;9.566;2022-11-12T08:23:04;10.38;;;7.60;;
31680;SDS011;18281;51.364;9.566;2022-11-12T08:25:30;13.05;;;7.63;;
31680;SDS011;18281;51.364;9.566;2022-11-12T08:27:56;11.45;;;8.27;;
31680;SDS011;18281;51.364;9.566;2022-11-12T08:30:23;10.50;;;7.78;;
31680;SDS011;18281;51.364;9.566;2022-11-12T08:32:59;10.20;;;6.93;;
31680;SDS011;18281;51.364;9.566;2022-11-12T08:35:27;11.50;;;7.65;;
31680;SDS011;18281;51.364;9.566;2022-11-12T08:37:56;9.18;;;7.05;;
31680;SDS011;18281;51.364;9.566;2022-11-12T08:40:26;9.68;;;7.70;;
31680;SDS011;18281;51.364;9.566;2022-11-12T08:42:56;10.88;;;8.13;;
31680;SDS011;18281;51.364;9.566;2022-11-12T08:45:40;14.75;;;10.35;;
31680;SDS011;18281;51.364;9.566;2022-11-12T08:48:10;16.23;;;10.48;;
31680;SDS011;18281;51.364;9.566;2022-11-12T08:50:38;14.55;;;9.88;;
31680;SDS011;18281;51.364;9.566;2022-11-12T08:53:06;15.68;;;10.27;;
31680;SDS011;18281;51.364;9.566;2022-11-12T08:55:33;11.70;;;9.35;;
31680;SDS011;18281;51.364;9.566;2022-11-12T08:57:59;25.75;;;15.35;;
31680;SDS011;18281;51.364;9.566;2022-11-12T09:00:28;15.43;;;10.93;;
31680;SDS011;18281;51.364;9.566;2022-11-12T09:03:04;16.83;;;10.07;;
31680;SDS011;18281;51.364;9.566;2022-11-12T09:05:31;14.50;;;10.13;;
31680;SDS011;18281;51.364;9.566;2022-11-12T09:07:58;13.52;;;9.05;;
31680;SDS011;18281;51.364;9.566;2022-11-12T09:10:25;11.90;;;8.60;;
31680;SDS011;18281;51.364;9.566;2022-11-12T09:12:50;10.20;;;7.55;;
31680;SDS011;18281;51.364;9.566;2022-11-12T09:15:17;10.63;;;8.02;;
31680;SDS011;18281;51.364;9.566;2022-11-12T09:17:42;10.48;;;7.63;;
31680;SDS011;18281;51.364;9.566;2022-11-12T09:20:08;10.25;;;7.20;;
31680;SDS011;18281;51.364;9.566;2022-11-12T09:22:33;9.77;;;6.60;;
31680;SDS011;18281;51.364;9.566;2022-11-12T09:24:59;8.73;;;7.07;;
31680;SDS011;18281;51.364;9.566;2022-11-12T09:27:27;11.68;;;7.38;;
31680;SDS011;18281;51.364;9.566;2022-11-12T09:29:53;7.57;;;6.07;;
31680;SDS011;18281;51.364;9.566;2022-11-12T09:32:19;6.65;;;5.88;;
31680;SDS011;18281;51.364;9.566;2022-11-12T09:34:44;9.80;;;7.50;;
31680;SDS011;18281;51.364;9.566;2022-11-12T09:37:10;8.93;;;6.70;;
31680;SDS011;18281;51.364;9.566;2022-11-12T09:39:35;10.80;;;7.28;;
31680;SDS011;18281;51.364;9.566;2022-11-12T09:42:05;9.93;;;7.20;;
31680;SDS011;18281;51.364;9.566;2022-11-12T09:44:32;10.77;;;7.47;;
31680;SDS011;18281;51.364;9.566;2022-11-12T09:47:02;11.82;;;7.72;;
31680;SDS011;18281;51.364;9.566;2022-11-12T09:49:35;9.10;;;7.28;;
31680;SDS011;18281;51.364;9.566;2022-11-12T09:52:18;9.48;;;7.40;;
31680;SDS011;18281;51.364;9.566;2022-11-12T09:54:49;11.90;;;7.57;;
31680;SDS011;18281;51.364;9.566;2022-11-12T09:57:21;8.38;;;6.88;;
31680;SDS011;18281;51.364;9.566;2022-11-12T09:59:47;9.40;;;6.60;;
31680;SDS011;18281;51.364;9.566;2022-11-12T10:02:17;10.90;;;7.18;;
31680;SDS011;18281;51.364;9.566;2022-11-12T10:10:44;9.07;;;6.60;;
31680;SDS011;18281;51.364;9.566;2022-11-12T10:15:58;7.63;;;6.22;;
31680;SDS011;18281;51.364;9.566;2022-11-12T10:24:52;9.40;;;5.90;;
31680;SDS011;18281;51.364;9.566;2022-11-12T10:27:20;8.43;;;5.30;;
31680;SDS011;18281;51.364;9.566;2022-11-12T10:32:26;12.98;;;8.73;;
31680;SDS011;18281;51.364;9.566;2022-11-12T10:34:51;10.95;;;7.00;;
31680;SDS011;18281;51.364;9.566;2022-11-12T10:37:24;8.10;;;6.07;;
31680;SDS011;18281;51.364;9.566;2022-11-12T10:42:23;8.25;;;5.80;;
31680;SDS011;18281;51.364;9.566;2022-11-12T10:44:48;10.77;;;5.65;;
31680;SDS011;18281;51.364;9.566;2022-11-12T10:47:30;7.93;;;6.05;;
31680;SDS011;18281;51.364;9.566;2022-11-12T10:55:19;7.88;;;5.93;;
31680;SDS011;18281;51.364;9.566;2022-11-12T10:57:58;6.97;;;5.65;;
31680;SDS011;18281;51.364;9.566;2022-11-12T11:00:34;8.27;;;6.38;;
31680;SDS011;18281;51.364;9.566;2022-11-12T11:03:14;6.80;;;5.47;;
31680;SDS011;18281;51.364;9.566;2022-11-12T11:05:52;7.72;;;5.68;;
31680;SDS011;18281;51.364;9.566;2022-11-12T11:08:34;11.77;;;7.18;;
31680;SDS011;18281;51.364;9.566;2022-11-12T11:11:09;8.40;;;6.35;;
31680;SDS011;18281;51.364;9.566;2022-11-12T11:13:38;9.15;;;6.22;;
31680;SDS011;18281;51.364;9.566;2022-11-12T11:16:04;8.90;;;5.93;;
31680;SDS011;18281;51.364;9.566;2022-11-12T11:18:32;8.00;;;5.35;;
31680;SDS011;18281;51.364;9.566;2022-11-12T11:26:55;8.60;;;6.25;;
31680;SDS011;18281;51.364;9.566;2022-11-12T11:37:43;6.70;;;5.95;;
31680;SDS011;18281;51.364;9.566;2022-11-12T11:40:27;7.82;;;5.70;;
31680;SDS011;18281;51.364;9.566;2022-11-12T11:48:18;6.22;;;5.25;;
31680;SDS011;18281;51.364;9.566;2022-11-12T11:56:21;8.07;;;5.35;;
31680;SDS011;18281;51.364;9.566;2022-11-12T12:05:16;12.00;;;5.57;;
31680;SDS011;18281;51.364;9.566;2022-11-12T12:07:39;6.80;;;5.32;;
31680;SDS011;18281;51.364;9.566;2022-11-12T12:10:21;9.40;;;5.75;;
31680;SDS011;18281;51.364;9.566;2022-11-12T12:15:26;7.07;;;5.13;;
31680;SDS011;18281;51.364;9.566;2022-11-12T12:23:29;8.30;;;5.00;;
31680;SDS011;18281;51.364;9.566;2022-11-12T12:26:20;8.98;;;4.72;;
31680;SDS011;18281;51.364;9.566;2022-11-12T12:31:50;4.93;;;4.18;;
31680;SDS011;18281;51.364;9.566;2022-11-12T12:34:22;5.97;;;4.57;;
31680;SDS011;18281;51.364;9.566;2022-11-12T12:40:04;9.43;;;4.57;;
31680;SDS011;18281;51.364;9.566;2022-11-12T12:45:23;5.65;;;4.50;;
31680;SDS011;18281;51.364;9.566;2022-11-12T12:47:57;6.28;;;4.32;;
31680;SDS011;18281;51.364;9.566;2022-11-12T12:50:25;7.30;;;4.28;;
31680;SDS011;18281;51.364;9.566;2022-11-12T12:55:42;5.25;;;4.50;;
31680;SDS011;18281;51.364;9.566;2022-11-12T12:58:26;4.38;;;3.33;;
31680;SDS011;18281;51.364;9.566;2022-11-12T13:01:01;5.53;;;3.83;;
31680;SDS011;18281;51.364;9.566;2022-11-12T13:06:30;6.20;;;4.03;;
31680;SDS011;18281;51.364;9.566;2022-11-12T13:09:00;5.03;;;3.80;;
31680;SDS011;18281;51.364;9.566;2022-11-12T13:17:00;9.48;;;3.70;;
31680;SDS011;18281;51.364;9.566;2022-11-12T13:19:27;5.13;;;4.10;;
31680;SDS011;18281;51.364;9.566;2022-11-12T13:25:00;6.87;;;4.80;;
31680;SDS011;18281;51.364;9.566;2022-11-12T13:30:07;4.85;;;3.40;;
31680;SDS011;18281;51.364;9.566;2022-11-12T13:37:42;7.03;;;3.70;;
31680;SDS011;18281;51.364;9.566;2022-11-12T13:45:52;7.57;;;5.30;;
31680;SDS011;18281;51.364;9.566;2022-11-12T13:53:58;5.90;;;4.35;;
31680;SDS011;18281;51.364;9.566;2022-11-12T13:56:30;4.95;;;3.92;;
31680;SDS011;18281;51.364;9.566;2022-11-12T13:59:13;6.57;;;3.70;;
31680;SDS011;18281;51.364;9.566;2022-11-12T14:01:39;6.90;;;3.75;;
31680;SDS011;18281;51.364;9.566;2022-11-12T14:04:06;4.70;;;3.53;;
31680;SDS011;18281;51.364;9.566;2022-11-12T14:06:36;5.65;;;3.45;;
31680;SDS011;18281;51.364;9.566;2022-11-12T14:14:49;4.00;;;3.20;;
31680;SDS011;18281;51.364;9.566;2022-11-12T14:22:50;5.28;;;3.22;;
31680;SDS011;18281;51.364;9.566;2022-11-12T14:25:19;9.20;;;5.20;;
31680;SDS011;18281;51.364;9.566;2022-11-12T14:27:46;9.98;;;6.63;;
31680;SDS011;18281;51.364;9.566;2022-11-12T14:30:17;6.75;;;4.40;;
31680;SDS011;18281;51.364;9.566;2022-11-12T14:32:47;7.15;;;4.93;;
31680;SDS011;18281;51.364;9.566;2022-11-12T14:35:15;8.23;;;5.65;;
31680;SDS011;18281;51.364;9.566;2022-11-12T14:40:30;9.70;;;5.82;;
31680;SDS011;18281;51.364;9.566;2022-11-12T14:42:57;8.63;;;5.27;;
31680;SDS011;18281;51.364;9.566;2022-11-12T14:45:23;7.55;;;4.72;;
31680;SDS011;18281;51.364;9.566;2022-11-12T14:47:49;9.00;;;5.75;;
31680;SDS011;18281;51.364;9.566;2022-11-12T14:50:21;6.95;;;4.57;;
31680;SDS011;18281;51.364;9.566;2022-11-12T14:52:53;9.02;;;4.10;;
31680;SDS011;18281;51.364;9.566;2022-11-12T14:55:25;9.00;;;5.57;;
31680;SDS011;18281;51.364;9.566;2022-11-12T14:57:54;5.20;;;3.42;;
31680;SDS011;18281;51.364;9.566;2022-11-12T15:02:53;5.40;;;3.40;;
31680;SDS011;18281;51.364;9.566;2022-11-12T15:05:20;6.63;;;3.90;;
31680;SDS011;18281;51.364;9.566;2022-11-12T15:13:06;3.08;;;2.78;;
31680;SDS011;18281;51.364;9.566;2022-11-12T15:15:34;3.58;;;2.92;;
31680;SDS011;18281;51.364;9.566;2022-11-12T15:18:14;4.93;;;2.72;;
31680;SDS011;18281;51.364;9.566;2022-11-12T15:20:43;6.30;;;2.85;;
31680;SDS011;18281;51.364;9.566;2022-11-12T15:23:17;4.28;;;3.08;;
31680;SDS011;18281;51.364;9.566;2022-11-12T15:25:43;5.45;;;3.15;;
31680;SDS011;18281;51.364;9.566;2022-11-12T15:28:22;8.55;;;5.65;;
31680;SDS011;18281;51.364;9.566;2022-11-12T15:33:45;9.05;;;5.78;;
31680;SDS011;18281;51.364;9.566;2022-11-12T15:36:18;4.15;;;3.65;;
31680;SDS011;18281;51.364;9.566;2022-11-12T15:38:49;6.32;;;4.32;;
31680;SDS011;18281;51.364;9.566;2022-11-12T15:41:21;4.80;;;3.20;;
31680;SDS011;18281;51.364;9.566;2022-11-12T15:43:49;3.55;;;3.10;;
31680;SDS011;18281;51.364;9.566;2022-11-12T15:46:15;7.85;;;3.55;;
31680;SDS011;18281;51.364;9.566;2022-11-12T15:48:40;4.07;;;3.03;;
31680;SDS011;18281;51.364;9.566;2022-11-12T15:51:07;5.25;;;2.88;;
31680;SDS011;18281;51.364;9.566;2022-11-12T15:53:34;4.10;;;2.90;;
31680;SDS011;18281;51.364;9.566;2022-11-12T15:55:59;3.80;;;2.80;;
31680;SDS011;18281;51.364;9.566;2022-11-12T15:58:29;4.43;;;2.80;;
31680;SDS011;18281;51.364;9.566;2022-11-12T16:00:58;2.65;;;2.38;;
31680;SDS011;18281;51.364;9.566;2022-11-12T16:03:23;3.55;;;3.17;;
31680;SDS011;18281;51.364;9.566;2022-11-12T16:05:49;3.15;;;2.67;;
31680;SDS011;18281;51.364;9.566;2022-11-12T16:08:14;3.60;;;2.80;;
31680;SDS011;18281;51.364;9.566;2022-11-12T16:10:41;4.28;;;2.55;;
31680;SDS011;18281;51.364;9.566;2022-11-12T16:13:12;3.38;;;2.40;;
31680;SDS011;18281;51.364;9.566;2022-11-12T16:15:51;2.85;;;2.33;;
31680;SDS011;18281;51.364;9.566;2022-11-12T16:18:17;3.63;;;2.55;;
31680;SDS011;18281;51.364;9.566;2022-11-12T16:20:43;4.75;;;2.40;;
31680;SDS011;18281;51.364;9.566;2022-11-12T16:23:11;6.35;;;3.08;;
31680;SDS011;18281;51.364;9.566;2022-11-12T16:25:36;3.42;;;2.45;;
31680;SDS011;18281;51.364;9.566;2022-11-12T16:28:07;4.05;;;2.70;;
31680;SDS011;18281;51.364;9.566;2022-11-12T16:30:37;3.38;;;2.33;;
31680;SDS011;18281;51.364;9.566;2022-11-12T16:33:03;3.90;;;2.50;;
31680;SDS011;18281;51.364;9.566;2022-11-12T16:35:30;6.63;;;3.97;;
31680;SDS011;18281;51.364;9.566;2022-11-12T16:37:58;4.00;;;2.95;;
31680;SDS011;18281;51.364;9.566;2022-11-12T16:40:25;10.20;;;5.60;;
31680;SDS011;18281;51.364;9.566;2022-11-12T16:42:52;9.52;;;5.75;;
31680;SDS011;18281;51.364;9.566;2022-11-12T16:45:19;5.68;;;4.45;;
31680;SDS011;18281;51.364;9.566;2022-11-12T16:47:47;3.72;;;2.42;;
31680;SDS011;18281;51.364;9.566;2022-11-12T16:50:18;2.63;;;1.80;;
31680;SDS011;18281;51.364;9.566;2022-11-12T16:52:45;4.75;;;2.10;;
31680;SDS011;18281;51.364;9.566;2022-11-12T16:55:11;3.03;;;2.08;;
31680;SDS011;18281;51.364;9.566;2022-11-12T16:57:37;3.38;;;2.05;;
31680;SDS011;18281;51.364;9.566;2022-11-12T17:00:03;2.28;;;1.85;;
31680;SDS011;18281;51.364;9.566;2022-11-12T17:02:29;3.13;;;2.63;;
31680;SDS011;18281;51.364;9.566;2022-11-12T17:04:55;4.30;;;3.00;;
31680;SDS011;18281;51.364;9.566;2022-11-12T17:07:20;12.07;;;3.55;;
31680;SDS011;18281;51.364;9.566;2022-11-12T17:09:46;5.50;;;2.40;;
31680;SDS011;18281;51.364;9.566;2022-11-12T17:12:11;7.55;;;4.25;;